Weil, Louisiana
Current Conditions -  °F | °C
As of 8:14 AM on Sunday 23 Nov 2014 (Local Time) from KAEX Reporting Station
Light Rain Light Rain  
Wind Chill: 64°   Ceiling: 7500
Heat Index: 64°   Visibility: 10mi
Dew Point: 61°   Wind: 15mph
Humidity: 90%   Direction: 280°W
Pressure: 29.51"   Gusts: 36mph
Location:  31.2912°N, 92.5491°W
Report Text: KAEX 231414Z 28013G31KT 240V300 10SM -RA SCT008 BKN075 OVC090 18/16 A2951 RMK AO2 PK WND 24035/1359 WSHFT 1400 P0003 T01780161
Loading
Personal Weather Stations






























Interactive Weather Map New forecast layout! Learn more

10-Day Weather Forecast

Advertisements
Track Severe Weather on mobile